2017 Severe Tropical Cyclone DEBBIE (2017081S13152)


IBTrACS version v04r00. Visit IBTrACS website for data access.
Please direct all questions to the IBTrACS Q and A forum

Storm track - Intensity - Wind Radii - Intensity Data - Source Data - All data

Summary Information

Satellite image near maximum intensity
Storm ID 2017081S13152
Start Mar 22 00Z
Landfall Mar 28 04Z
Max Intensity 115 kt (Mar 27 12Z), 937 mb (Mar 27 12Z)
End Apr 1 00Z
ATCF IDs ,SH132017
Track status Best track data.

Storm track plot

Map of storm track

Intensity plots

Map of storm track

Radial wind information

Map of storm track

Position and Intensity Table

BASIN ISO_TIME_________ NATURE LAT LON WMO WIND WMO PRES USA WIND USA PRES BOM WIND BOM PRES
degrees north degrees east kts mb kts mb kts mb
SP 2017-03-22 00:00:00 NR -13.20 152.00 15 1006 15 1006
SP 03:00:00 NR -12.48 151.55 15 1008
SP 06:00:00 NR -12.00 151.70 15 1010 15 1010
SP 09:00:00 NR -11.92 152.78 15 1010
SP 12:00:00 NR -12.10 154.00 15 1011 15 1011
SP 15:00:00 NR -12.29 154.24 16 1010
SP 18:00:00 NR -12.57 153.92 17 1009
SP 21:00:00 NR -12.92 153.29 18 1008
SP 2017-03-23 00:00:00 NR -13.30 152.60 20 1008 20 1008
SP 03:00:00 NR -13.72 152.04 20 1004
SP 06:00:00 NR -14.14 151.62 20 1000 20 1007 20 1000
SP 09:00:00 NR -14.36 151.57 20 1007 20 1000
SP 12:00:00 NR -14.59 151.63 20 1000 20 1007 20 1000
SP 15:00:00 NR -14.91 151.63 22 1007 22 1000
SP 18:00:00 TS -15.25 151.60 25 1000 25 1007 25 1000
SP 21:00:00 TS -15.56 151.54 27 1003 25 999
SP 2017-03-24 00:00:00 TS -15.85 151.50 25 999 30 1000 25 999
SP 03:00:00 TS -16.14 151.56 30 998 25 997
SP 06:00:00 TS -16.40 151.65 25 996 30 997 25 996
SP 09:00:00 TS -16.65 151.71 30 1000 27 996
SP 12:00:00 TS -16.85 151.80 30 996 30 1003 30 996
SP 15:00:00 TS -16.97 151.96 32 999 30 993
SP 18:00:00 TS -17.05 152.10 30 991 35 996 30 991
SP 21:00:00 TS -17.16 152.15 40 997 32 991
SP 2017-03-25 00:00:00 TS -17.30 152.15 35 991 45 998 35 991
SP 03:00:00 TS -17.48 152.18 50 993 37 990
SP 06:00:00 TS -17.65 152.15 40 990 55 988 40 990
SP 09:00:00 TS -17.74 152.01 45 991 57 983 45 991
SP 12:00:00 TS -17.75 152.00 55 986 60 978 55 986
SP 15:00:00 TS -17.82 151.83 55 984 62 980 55 984
SP 18:00:00 TS -17.90 151.70 55 984 65 982 55 984
SP 21:00:00 TS -18.00 151.57 55 984 65 982 55 984
SP 2017-03-26 00:00:00 TS -18.10 151.40 55 986 65 982 55 986
SP 03:00:00 TS -18.20 151.25 60 983 65 978 60 983
SP 06:00:00 TS -18.30 151.15 60 978 65 974 60 978
SP 09:00:00 TS -18.37 150.97 55 980 65 974 55 980
SP 12:00:00 TS -18.45 150.80 60 982 65 974 60 982
SP 15:00:00 TS -18.57 150.70 55 979 67 972 55 979
SP 18:00:00 TS -18.75 150.60 60 980 70 970 60 980
SP 21:00:00 TS -18.87 150.55 55 981 75 966 55 981
SP 2017-03-27 00:00:00 TS -19.10 150.45 70 974 80 963 70 974
SP 03:00:00 TS -19.23 150.33 80 961 87 957 80 961
SP 04:00:00 TS -19.35 150.31 80 957 90 955 80 957
SP 05:00:00 TS -19.38 150.23 85 952 92 953 85 952
SP 06:00:00 TS -19.44 150.17 80 959 95 952 80 959
SP 07:00:00 TS -19.47 150.12 85 952 98 949 85 952
SP 08:00:00 TS -19.49 150.04 85 952 101 946 85 952
SP 09:00:00 TS -19.50 149.98 85 952 105 944 85 952
SP 10:00:00 TS -19.54 149.92 90 948 108 941 90 948
SP 11:00:00 TS -19.56 149.84 90 947 111 939 90 947
SP 12:00:00 TS -19.56 149.76 95 949 115 937 95 949
SP 13:00:00 TS -19.59 149.71 95 945 115 937 95 945
SP 14:00:00 TS -19.66 149.64 95 944 115 937 95 944
SP 15:00:00 TS -19.73 149.52 95 945 115 937 95 945
SP 16:00:00 TS -19.74 149.43 95 946 115 937 95 946
SP 17:00:00 TS -19.73 149.34 95 946 115 937 95 946
SP 18:00:00 TS -19.75 149.28 95 949 115 937 95 949
SP 19:00:00 TS -19.79 149.21 95 946 113 940 95 946
SP 20:00:00 TS -19.80 149.18 95 943 111 944 95 943
SP 21:00:00 TS -19.84 149.12 95 943 110 948 95 943
SP 22:00:00 TS -19.88 149.04 95 943 108 952 95 943
SP 23:00:00 TS -19.90 148.99 95 943 106 956 95 943
SP 2017-03-28 00:00:00 TS -19.98 148.90 90 956 105 960 90 956
SP 01:00:00 TS -20.07 148.81 105 943 100 960 105 943
SP 02:00:00 TS -20.12 148.77 100 943 96 961 100 943
SP 02:40:00 TS -20.20 148.71 80 957 93 961 80 957
SP 03:00:00 TS -20.22 148.67 100 943 92 961 100 943
SP 04:00:00 TS -20.29 148.58 95 949 88 962 95 949
SP 05:00:00 TS -20.33 148.53 85 958 84 962 85 958
SP 06:00:00 TS -20.38 148.45 70 965 80 963 70 965
SP 07:00:00 TS -20.43 148.39 72 968 76 965 72 968
SP 08:00:00 TS -20.47 148.31 66 974 73 968 66 974
SP 09:00:00 TS -20.52 148.22 62 976 70 970 62 976
SP 10:00:00 TS -20.60 148.07 60 978 66 973 60 978
SP 11:00:00 TS -20.69 147.92 55 983 63 975 55 983
SP 12:00:00 TS -20.72 147.83 50 980 60 978 50 980
SP 13:00:00 TS -20.81 147.68 50 987 56 980 50 987
SP 14:00:00 TS -20.87 147.56 45 990 53 983 45 990
SP 15:00:00 TS -20.94 147.44 45 990 50 985 45 990
SP 16:00:00 TS -21.02 147.33 40 994 46 988 40 994
SP 17:00:00 TS -21.09 147.24 30 995 43 990 30 995
SP 18:00:00 TS -21.25 147.25 35 989 40 993 35 989
SP 19:00:00 TS -21.28 147.16 995 39 993 34 995
SP 20:00:00 TS -21.35 147.08 995 38 994 33 995
SP 21:00:00 TS -21.41 147.01 37 994 32 994
SP 2017-03-29 00:00:00 TS -21.60 146.90 30 994 35 996 30 994
SP 03:00:00 TS -21.84 146.85 32 998 27 994
SP 06:00:00 TS -22.12 146.90 25 995 30 1000 25 995
SP 09:00:00 NR -22.46 147.11 22 997
SP 12:00:00 NR -22.90 147.40 20 999 20 999
SP 15:00:00 NR -23.46 147.68 20 999
SP 18:00:00 NR -24.00 148.00 20 999 20 999
SP 21:00:00 NR -24.32 148.20 20 1000
SP 2017-03-30 00:00:00 NR -24.70 148.80 20 1002 20 1002
SP 03:00:00 NR -25.30 150.10 1000 22 1000
SP 04:00:00 NR -25.45 150.30 1000 23 1000
SP 05:00:00 NR -25.55 151.40 999 24 999
SP 06:00:00 NR -25.90 152.70 25 999 25 999
SP 07:00:00 NR -26.30 152.90 998 26 998
SP 08:00:00 NR -26.80 152.95 997 28 997
SP 09:00:00 NR -27.20 152.90 997 30 997
SP 10:00:00 NR -27.50 152.90 996 31 996
SP 11:00:00 NR -27.66 153.00 996 33 996
SP 12:00:00 NR -27.80 153.10 35 994 35 994
SP 13:00:00 NR -27.90 153.30 996 35 996
SP 14:00:00 NR -27.93 153.40 996 35 996
SP 15:00:00 NR -28.07 153.58 35 996
SP 16:00:00 NR -28.17 153.80 996 35 996
SP 18:00:00 NR -27.90 154.20 35 995 35 995
SP 21:00:00 NR -27.84 155.13 32 996
SP 2017-03-31 00:00:00 NR -28.00 156.10 30 998 30 998
SP 03:00:00 NR -28.08 156.67 30 998
SP 06:00:00 NR -28.20 157.10 30 998 30 998
SP 09:00:00 NR -28.34 157.63 30 998
SP 12:00:00 NR -28.50 158.10 30 999 30 999
SP 15:00:00 NR -28.67 158.41 27 999
SP 18:00:00 NR -28.85 158.65 25 1000 25 1000
SP 21:00:00 NR -29.03 158.91 22 1001
SP 2017-04-01 00:00:00 NR -29.20 159.20 20 1002 20 1002

Source Information

Agency Information
USA bsh132017.dat
TOKYO
CMA
HKO
NEWDELHI
REUNION
BOM IDCKMSTM0S.csv:Line=26545:Debbie
NADI
WELLINGTON
DS824
TD9636
TD9635
NEUMANN
MLC

All available IBTrACS Data

SEASON BASIN SUBBASIN ISO_TIME_________ NATURE LAT LON WMO WIND WMO PRES WMO AGENCY DIST2LAND LANDFALL IFLAG USA AGENCY USA ATCF_ID USA LAT USA LON USA STATUS USA WIND USA PRES USA SSHS USA R34 USA R50 USA R64 USA POCI USA ROCI USA RMW USA EYE BOM LAT BOM LON BOM TYPE BOM WIND BOM PRES BOM TNUM BOM CI BOM RMW BOM R34 BOM R50 BOM R64 BOM ROCI BOM POCI BOM EYE BOM POS_METHOD BOM PRES_METHOD BOM GUST BOM GUST_PER STORM SPEED STORM DIR
Year degrees north degrees east kts mb km km degrees north degrees east kts mb 1 nmile nmile nmile mb nmile nmile nmile degrees north degrees east kts mb 1 1 nmile nmile nmile nmile nmile mb nmile kts second kts degrees
2017 SP EA 2017-03-22 00:00:00 NR -13.20 152.00 15 1006 bom 323 234 ______O_______ -1 -13.20 152.00 15 1006 99 1010 45 45 17 328
2017 SP EA 03:00:00 NR -12.48 151.55 229 185 ______P_______ -1 -12.48 151.55 15 1008 99 1010 12 346
2017 SP EA 06:00:00 NR -12.00 151.70 15 1010 bom 191 191 ______O_______ -1 -12.00 151.70 15 1010 99 1010 45 45 13 65
2017 SP EA 09:00:00 NR -11.92 152.78 271 271 ______P_______ -1 -11.92 152.78 15 1010 1010 23 93
2017 SP EA 12:00:00 NR -12.10 154.00 15 1011 bom 397 397 ______O_______ -1 -12.10 154.00 15 1011 1010 45 45 15 104
2017 SP EA 15:00:00 NR -12.29 154.24 426 408 ______P_______ -1 -12.29 154.24 16 1010 1010 5 190
2017 SP EA 18:00:00 NR -12.57 153.92 414 382 ______P_______ -1 -12.57 153.92 17 1009 1010 11 236
2017 SP EA 21:00:00 NR -12.92 153.29 382 363 ______P_______ -1 -12.92 153.29 18 1008 1010 15 240
2017 SP EA 2017-03-23 00:00:00 NR -13.30 152.60 20 1008 bom 366 360 ______O_______ -1 -13.30 152.60 20 1008 1010 45 45 15 236
2017 SP EA 03:00:00 NR -13.72 152.04 374 374 ______P_______ -1 -13.72 152.04 20 1004 1010 13 229
2017 SP EA 06:00:00 NR -14.14 151.62 20 1000 bom 402 402 O_____O_______ jtwc_sh SH132017 -14.30 151.70 DB 20 1007 -3 1008 150 -14.10 151.60 20 20 1000 1.00 1.00 170 1010 3 7 45 45 8 215
2017 SP EA 09:00:00 NR -14.36 151.57 434 434 P_____P_______ SH132017 -14.49 151.74 DB 20 1007 -3 1008 160 -14.30 151.49 20 20 1000 134 1010 4 178
2017 SP EA 12:00:00 NR -14.59 151.63 20 1000 bom 455 455 O_____O_______ jtwc_sh SH132017 -14.70 151.80 DB 20 1007 -3 1009 170 -14.50 151.50 20 20 1000 1.50 1.50 99 1010 7 7 45 45 6 175
2017 SP EA 15:00:00 NR -14.91 151.63 487 487 P_____P_______ SH132017 -14.93 151.87 DB 22 1007 -3 1009 177 -14.89 151.39 20 22 1000 129 1009 7 181
2017 SP EA 18:00:00 TS -15.25 151.60 25 1000 bom 520 531 O_____O_______ jtwc_sh SH132017 -15.20 151.90 TD 25 1007 -1 1009 185 -15.30 151.30 20 25 1000 1.50 1.50 159 1008 7 2 45 45 7 189
2017 SP EA 21:00:00 TS -15.56 151.54 561 561 P_____P_______ SH132017 -15.49 151.81 TD 27 1003 -1 1007 182 -15.62 151.26 20 25 999 189 1010 6 189
2017 SP EA 2017-03-24 00:00:00 TS -15.85 151.50 25 999 bom 578 549 O_____O_______ jtwc_sh SH132017 -15.80 151.70 TD 30 1000 -1 1006 180 35 -15.90 151.30 20 25 999 1.50 1.50 219 1012 7 7 45 45 6 180
2017 SP EA 03:00:00 TS -16.14 151.56 555 526 P_____P_______ SH132017 -16.11 151.68 TD 30 998 -1 1007 182 35 -16.17 151.43 20 25 997 229 1010 6 166
2017 SP EA 06:00:00 TS -16.40 151.65 25 996 bom 532 514 O_____O_______ jtwc_sh SH132017 -16.40 151.70 TD 30 997 -1 1008 185 35 -16.40 151.60 20 25 996 2.00 2.00 239 1008 7 2 45 45 5 164
2017 SP EA 09:00:00 TS -16.65 151.71 505 496 P_____P_______ SH132017 -16.68 151.73 TD 30 1000 -1 1008 185 35 -16.62 151.70 20 27 996 219 1009 5 163
2017 SP EA 12:00:00 TS -16.85 151.80 30 996 bom 503 492 O_____O_______ jtwc_sh SH132017 -16.90 151.80 TD 30 1003 -1 1008 185 35 -16.80 151.80 20 30 996 2.50 2.50 199 1010 7 45 45 4 143
2017 SP EA 15:00:00 TS -16.97 151.96 499 499 P_____P_______ SH132017 -17.02 151.95 TD 32 999 -1 1008 230 35 -16.91 151.97 20 30 993 199 1009 4 125
2017 SP EA 18:00:00 TS -17.05 152.10 30 991 bom 507 490 O_____O_______ jtwc_sh SH132017 -17.10 152.10 TS 35 996 0 125,130,100,105 1008 275 35 -17.00 152.10 20 30 991 2.50 2.50 199 1008 7 2 45 45 3 138
2017 SP EA 21:00:00 TS -17.16 152.15 490 482 P_____P_______ SH132017 -17.18 152.17 TS 40 997 0 82,125,90,70 1008 275 35 -17.14 152.12 20 32 991 199 1009 3 171
2017 SP EA 2017-03-25 00:00:00 TS -17.30 152.15 35 991 bom 490 475 O_____O_______ jtwc_sh SH132017 -17.30 152.20 TS 45 998 0 40,120,80,35 1008 275 35 -17.30 152.10 21 35 991 3.00 3.00 30 ,119,119, 199 1010 7 7 49 49 3 175
2017 SP EA 03:00:00 TS -17.48 152.18 475 468 P_____P_______ SH132017 -17.51 152.22 TS 50 993 0 90,115,82,72 1007 260 32 -17.46 152.14 21 37 990 30 ,119,119, 184 1008 4 0
2017 SP EA 06:00:00 TS -17.65 152.15 40 990 bom 468 444 O_____O_______ jtwc_sh SH132017 -17.70 152.20 TS 55 988 0 140,110,85,110 75,55,40,55 1006 245 30 -17.60 152.10 30 40 990 3.00 3.00 30 70,119,119,50 170 1006 7 7 55 55 3 213
2017 SP EA 09:00:00 TS -17.74 152.01 45 991 bom 444 444 P_____V_______ SH132017 -17.77 152.12 TS 57 983 0 145,137,110,117 77,72,55,60 1006 237 30 -17.70 151.90 30 45 991 3.00 3.00 30 110,119,119,110 199 1006 64 64 2 235
2017 SP EA 12:00:00 TS -17.75 152.00 55 986 bom 444 421 O_____O_______ jtwc_sh SH132017 -17.80 152.00 TS 60 978 0 150,165,135,125 80,90,70,65 1007 230 30 -17.70 152.00 30 55 986 3.50 3.50 30 99,139,139,99 50,90,79,50 219 1010 3 5 75 75 2 244
2017 SP EA 15:00:00 TS -17.82 151.83 55 984 bom 421 406 P_____O_______ SH132017 -17.84 151.86 TS 62 980 0 150,165,135,125 80,90,70,65 1007 230 30 -17.80 151.80 30 55 984 3.50 3.50 30 110,139,139,110 39,70,70,39 210 1008 75 75 3 242
2017 SP EA 18:00:00 TS -17.90 151.70 55 984 bom 406 390 O_____O_______ jtwc_sh SH132017 -17.90 151.70 TY 65 982 1 150,165,135,125 80,90,70,65 35,35,35,35 1007 230 30 -17.90 151.70 30 55 984 3.50 3.50 30 99,139,139,99 50,79,79,50 219 1008 3 5 75 75 3 234
2017 SP EA 21:00:00 TS -18.00 151.57 55 984 bom 390 367 P_____O_______ SH132017 -17.99 151.54 TY 65 982 1 150,165,135,125 80,90,70,65 35,35,35,35 1007 230 30 -18.00 151.60 30 55 984 3.50 3.50 24 110,139,139,110 39,30,30,39 239 1008 75 75 3 235
2017 SP EA 2017-03-26 00:00:00 TS -18.10 151.40 55 986 bom 367 352 O_____O_______ jtwc_sh SH132017 -18.10 151.40 TY 65 982 1 150,165,135,125 80,90,70,65 35,35,35,35 1007 230 30 -18.10 151.40 30 55 986 3.50 3.50 30 99,139,139,99 59,70,70,50 269 1012 3 5 75 75 4 236
2017 SP EA 03:00:00 TS -18.20 151.25 60 983 bom 344 336 P_____O_______ SH132017 -18.20 151.30 TY 65 978 1 155,172,157,125 80,82,72,67 35,35,35,35 1006 222 30 -18.20 151.20 30 60 983 4.00 4.00 24 110,139,139,110 59,50,39,39 179 1008 84 84 3 230
2017 SP EA 06:00:00 TS -18.30 151.15 60 978 bom 336 313 O_____O_______ jtwc_sh SH132017 -18.30 151.20 TY 65 974 1 160,180,180,125 80,75,75,70 35,35,35,35 1005 215 30 -18.30 151.10 30 60 978 4.00 4.00 30 99,139,139,99 59,59,59,50 250 1008 3 5 84 84 3 237
2017 SP EA 09:00:00 TS -18.37 150.97 55 980 bom 313 298 P_____O_______ SH132017 -18.39 151.05 TY 65 974 1 160,180,180,125 80,75,75,70 35,35,35,35 1006 215 30 -18.35 150.90 30 55 980 4.00 4.00 24 110,139,139,110 59,50,39,39 190 1006 80 80 4 246
2017 SP EA 12:00:00 TS -18.45 150.80 60 982 bom 298 275 O_____O_______ jtwc_sh SH132017 -18.50 150.90 TY 65 974 1 160,180,180,125 80,75,75,70 35,35,35,35 1007 215 30 -18.40 150.70 30 60 982 4.00 4.00 24 99,139,139,99 50,39,50,50 269 1012 3 5 84 84 3 233
2017 SP EA 15:00:00 TS -18.57 150.70 55 979 bom 275 260 P_____V_______ SH132017 -18.64 150.79 TY 67 972 1 160,180,180,125 80,75,75,70 35,35,35,35 1007 215 30 -18.50 150.60 30 55 979 3.50 4.00 24 110,139,139,110 47,41,55,47 239 1010 80 80 4 212
2017 SP EA 18:00:00 TS -18.75 150.60 60 980 bom 260 245 O_____V_______ jtwc_sh SH132017 -18.80 150.70 TY 70 970 1 160,180,180,125 80,75,75,70 35,35,35,35 1007 215 30 -18.70 150.50 30 60 980 3.50 4.00 19 99,139,139,99 44,44,60,44 280 1010 7 5 84 84 3 204
2017 SP EA 21:00:00 TS -18.87 150.55 55 981 bom 245 222 P_____V_______ SH132017 -18.95 150.61 TY 75 966 1 160,180,180,125 80,75,75,70 35,35,35,35 1007 212 30 -18.80 150.50 30 55 981 3.50 4.00 24 110,139,139,110 41,47,65,41 210 1008 75 75 4 202
2017 SP EA 2017-03-27 00:00:00 TS -19.10 150.45 70 974 bom 222 199 O_____O_______ jtwc_sh SH132017 -19.10 150.50 TY 80 963 1 160,180,180,125 80,75,75,70 35,35,35,35 1007 210 30 -19.10 150.40 40 70 974 4.50 4.50 19 119,139,130,99 39,50,70,39 300 1012 19 7 5 99 99 4 211
2017 SP EA 03:00:00 TS -19.23 150.33 80 961 bom 199 186 P_____O_______ SH132017 -19.26 150.37 TY 87 957 2 155,175,175,137 70,75,77,65 35,35,35,35 1005 205 21 -19.20 150.30 40 80 961 5.00 5.00 19 110,139,139,110 70,70,70,59 199 1008 110 110 4 208
2017 SP EA 04:00:00 TS -19.35 150.31 80 957 bom 186 177 P_____O_______ SH132017 -19.31 150.31 TY 90 955 2 153,173,173,141 66,75,78,63 35,35,35,35 1004 203 17 -19.40 150.30 40 80 957 5.00 5.00 19 110,139,139,110 70,70,70,59 150 1004 110 110 5 213
2017 SP EA 05:00:00 TS -19.38 150.23 85 952 bom 177 177 P_____O_______ SH132017 -19.36 150.26 TY 92 953 2 151,171,171,145 63,75,79,61 35,35,35,35 1004 201 14 -19.40 150.20 40 85 952 5.00 5.00 19 110,139,139,110 70,79,79,70 150 1004 119 119 5 236
2017 SP EA 06:00:00 TS -19.44 150.17 80 959 bom 177 162 O_____O_______ jtwc_sh SH132017 -19.40 150.20 TY 95 952 2 150,170,170,150 60,75,80,60 35,35,35,35 1004 200 12 15 -19.48 150.15 40 80 959 5.00 5.00 16 119,139,119,99 50,70,70,50 30,30,50,30 210 1006 17 6 5 110 110 4 228
2017 SP EA 07:00:00 TS -19.47 150.12 85 952 bom 162 154 P_____V_______ SH132017 -19.44 150.14 TY 98 949 3 150,170,170,150 60,75,80,60 35,35,35,35 1004 198 12 -19.50 150.10 40 85 952 5.00 5.00 19 110,139,139,110 70,79,79,70 30,30,48,30 150 1004 119 119 4 249
2017 SP EA 08:00:00 TS -19.49 150.04 85 952 bom 154 154 P_____V_______ SH132017 -19.47 150.08 TY 101 946 3 150,170,170,150 60,75,80,60 35,35,35,35 1004 196 13 -19.50 150.00 40 85 952 5.00 5.00 19 110,139,139,110 70,79,79,70 30,30,46,30 150 1004 119 119 4 256
2017 SP EA 09:00:00 TS -19.50 149.98 85 952 bom 154 145 P_____V_______ SH132017 -19.51 150.01 TY 105 944 3 150,170,170,150 60,75,80,60 35,35,35,35 1004 195 13 -19.50 149.95 40 85 952 5.00 5.00 19 110,139,139,110 70,79,79,70 30,30,44,30 150 1004 119 119 4 243
2017 SP EA 10:00:00 TS -19.54 149.92 90 948 bom 145 130 P_____V_______ SH132017 -19.54 149.95 TY 108 941 3 150,170,170,150 60,75,80,60 35,35,35,35 1004 193 14 -19.55 149.90 40 90 948 5.00 5.00 16 113,135,129,106 66,75,75,66 30,30,42,30 150 1004 135 135 4 248
2017 SP EA 11:00:00 TS -19.56 149.84 90 947 bom 130 130 P_____V_______ SH132017 -19.57 149.87 TY 111 939 3 150,170,170,150 60,75,80,60 35,35,35,35 1004 191 14 -19.55 149.80 40 90 947 5.50 5.50 15 116,132,119,102 62,72,72,62 30,30,40,30 130 1004 124 124 5 264
2017 SP EA 12:00:00 TS -19.56 149.76 95 949 bom 130 122 O_____O_______ jtwc_sh SH132017 -19.60 149.80 TY 115 937 4 150,170,170,150 60,75,80,60 35,35,35,35 1005 190 15 20 -19.52 149.73 40 95 949 5.50 5.50 16 119,130,110,99 59,70,70,59 30,30,39,30 269 1010 17 6 5 135 135 4 255
2017 SP EA 13:00:00 TS -19.59 149.71 95 945 bom 122 107 P_____V_______ SH132017 -19.63 149.72 TY 115 937 4 145,163,159,139 59,73,77,57 33,33,33,33 1005 190 15 -19.55 149.70 40 95 945 15 119,127,107,99 60,70,68,60 30,31,40,30 139 1006 135 135 5 228
2017 SP EA 14:00:00 TS -19.66 149.64 95 944 bom 107 99 P_____V_______ SH132017 -19.67 149.64 TY 115 937 4 141,156,149,129 58,71,74,54 31,31,31,31 1005 191 15 -19.65 149.65 40 95 944 5.50 5.50 15 119,124,104,99 62,70,66,62 31,33,42,31 139 1006 135 135 7 232
2017 SP EA 15:00:00 TS -19.73 149.52 95 945 bom 99 91 P_____V_______ SH132017 -19.70 149.55 TY 115 937 4 137,150,140,120 57,70,72,52 30,30,30,30 1005 192 15 -19.75 149.50 40 95 945 5.50 5.50 15 119,121,101,99 64,70,64,64 32,34,44,32 139 1006 135 135 6 247
2017 SP EA 16:00:00 TS -19.74 149.43 95 946 bom 91 85 P_____V_______ SH132017 -19.73 149.46 TY 115 937 4 133,143,129,109 56,68,69,49 28,28,28,28 1005 193 15 -19.75 149.40 40 95 946 5.50 5.50 15 119,119,99,99 66,70,62,66 33,36,46,33 139 1006 135 135 5 267
2017 SP EA 17:00:00 TS -19.73 149.34 95 946 bom 85 85 P_____V_______ SH132017 -19.77 149.38 TY 115 937 4 129,136,119,99 55,66,67,47 26,26,26,26 1005 194 15 -19.70 149.30 40 95 946 5.50 5.50 15 119,119,99,99 68,70,60,68 34,37,48,34 139 1006 135 135 4 267
2017 SP EA 18:00:00 TS -19.75 149.28 95 949 bom 85 69 O_____O_______ jtwc_sh SH132017 -19.80 149.30 TY 115 937 4 125,130,110,90 55,65,65,45 25,25,25,25 1005 195 15 20 -19.70 149.26 40 95 949 5.50 5.50 16 119,130,99,99 70,70,59,70 35,39,50,35 380 1008 17 6 2 135 135 4 245
2017 SP EA 19:00:00 TS -19.79 149.21 95 946 bom 69 69 P_____V_______ SH132017 -19.83 149.23 TY 113 940 4 125,130,110,90 55,65,65,45 25,25,25,25 1005 193 14 -19.75 149.20 40 95 946 5.00 5.50 15 119,119,99,99 65,65,55,64 35,38,46,34 139 1006 135 135 3 242
2017 SP EA 20:00:00 TS -19.80 149.18 95 943 bom 69 64 P_____V_______ SH132017 -19.86 149.16 TY 111 944 3 125,130,110,90 55,65,65,45 25,25,25,25 1005 191 13 -19.75 149.20 40 95 943 5.00 5.50 15 119,119,99,99 61,61,52,59 35,37,43,33 150 1004 135 135 3 239
2017 SP EA 21:00:00 TS -19.84 149.12 95 943 bom 64 49 P_____V_______ SH132017 -19.88 149.09 TY 110 948 3 125,130,110,90 55,65,65,45 25,25,25,25 1005 190 12 -19.80 149.15 40 95 943 5.00 5.50 15 119,119,104,104 57,57,49,54 35,37,40,32 150 1004 135 135 5 238
2017 SP EA 22:00:00 TS -19.88 149.04 95 943 bom 49 49 P_____V_______ SH132017 -19.92 149.03 TY 108 952 3 125,130,110,90 55,65,65,45 25,25,25,25 1005 188 11 -19.85 149.05 40 95 943 5.00 5.50 16 119,119,104,104 52,52,45,49 35,36,36,31 154 1004 135 135 4 243
2017 SP EA 23:00:00 TS -19.90 148.99 95 943 bom 49 35 P_____V_______ SH132017 -19.96 148.96 TY 106 956 3 125,130,110,90 55,65,65,45 25,25,25,25 1005 186 10 -19.85 149.02 40 95 943 5.00 5.50 17 119,119,104,104 48,48,42,44 35,35,33,30 159 1004 135 135 5 233
2017 SP EA 2017-03-28 00:00:00 TS -19.98 148.90 90 956 bom 35 22 O_____O_______ jtwc_sh SH132017 -20.00 148.90 TY 105 960 3 125,130,110,90 55,65,65,45 25,25,25,25 1005 185 10 10 -19.96 148.91 40 90 956 5.00 5.50 17 110,110,79,99 44,44,39,39 35,35,30,30 519 1012 17 6 5 124 124 7 226
2017 SP EA 01:00:00 TS -20.07 148.81 105 943 bom 22 22 P_____V_______ SH132017 -20.06 148.84 TY 100 960 3 109,115,98,80 42 25 1005 185 10 -20.08 148.78 40 105 943 5.00 5.50 17 119,119,104,104 59,59,44,50 35,33,27,27 179 1008 139 139 6 222
2017 SP EA 02:00:00 TS -20.12 148.77 100 943 bom 22 10 P_____V_______ SH132017 -20.12 148.78 TY 96 961 3 94,101,86,71 39 25 1005 185 10 -20.13 148.75 40 100 943 5.00 5.50 17 119,119,104,104 59,59,44,50 35,31,25,25 179 1008 139 139 6 218
2017 SP EA 02:40:00 TS -20.20 148.71 80 957 bom 10 10 P_____O_______ SH132017 -20.16 148.74 TY 93 961 2 85,92,78,65 38 25 1005 185 10 -20.23 148.67 40 80 957 5.00 5.00 17 110,110,79,99 44,44,39,39 35,30,24,24 360 1008 17 6 3 110 110 8 221
2017 SP EA 03:00:00 TS -20.22 148.67 100 943 bom 10 0 P_____O_______ SH132017 -20.18 148.72 TY 92 961 2 80,87,75,62 37 25 1005 185 10 -20.26 148.62 40 100 943 5.00 5.50 17 119,110,90,99 50,50,39,39 35,35,24,30 179 1008 139 139 7 231
2017 SP EA 04:00:00 TS -20.29 148.58 95 949 bom 0 0 P_____O_______ SH132017 -20.26 148.66 TY 88 962 2 64,73,63,53 34 25 1005 185 10 -20.33 148.51 40 95 949 17 119,110,90,104 50,50,39,39 35,30,19,19 179 1008 135 135 5 230
2017 SP EA 05:00:00 TS -20.33 148.53 85 958 bom 0 0 P_____O_______ SH132017 -20.33 148.58 TY 84 962 2 49,59,51,44 32 25 1005 185 10 -20.34 148.48 40 85 958 5.00 5.50 17 119,110,90,104 50,50,30,30 24,24,15,15 225 1008 119 119 5 236
2017 SP EA 06:00:00 TS -20.38 148.45 70 965 bom 0 0 O_____V_______ jtwc_sh SH132017 -20.40 148.50 TY 80 963 1 35,45,40,35 30 25 1005 185 10 10 -20.35 148.40 40 70 965 10 110,110,50,99 30,11,11,15 19,17,12,15 199 1004 7 7 99 99 5 233
2017 SP EA 07:00:00 TS -20.43 148.39 72 968 bom 0 0 P_____O_______ SH132017 -20.46 148.40 TY 76 965 1 35,45,40,35 1005 185 10 -20.40 148.39 40 72 968 8 99,99,79,90 30,30,19,30 15,10,10,15 225 1008 99 99 5 233
2017 SP EA 08:00:00 TS -20.47 148.31 66 974 bom 0 0 P_____O_______ SH132017 -20.53 148.28 TY 73 968 1 35,45,40,35 1005 185 10 -20.42 148.33 40 66 974 8 119,119,79,70 19,19,15,15 10,10,10,10 225 1008 89 89 6 243
2017 SP EA 09:00:00 TS -20.52 148.22 62 976 bom 0 0 P_____O_______ SH132017 -20.59 148.16 TY 70 970 1 35,45,40,35 1005 185 10 -20.44 148.27 40 62 976 8 119,119,99,70 15,15,15,15 225 1008 84 84 8 239
2017 SP EA 10:00:00 TS -20.60 148.07 60 978 bom 0 0 P_____V_______ SH132017 -20.66 148.04 TY 66 973 1 35,45,40,35 1005 185 10 -20.55 148.10 40 60 978 8 119,119,99,70 15,15,15,15 225 1008 84 84 10 237
2017 SP EA 11:00:00 TS -20.69 147.92 55 983 bom 0 0 P_____O_______ SH132017 -20.73 147.92 TY 63 975 0 35,45,40,35 1005 185 10 -20.66 147.93 40 55 983 8 139,139,70,70 225 1008 75 75 8 242
2017 SP EA 12:00:00 TS -20.72 147.83 50 980 bom 0 0 O_____O_______ jtwc_sh SH132017 -20.80 147.80 TS 60 978 0 35,45,40,35 1005 185 10 -20.65 147.85 30 50 980 10 70,90,30,30 179 1006 7 7 69 69 8 243
2017 SP EA 13:00:00 TS -20.81 147.68 50 987 bom 0 0 P_____O_______ SH132017 -20.88 147.69 TS 56 980 0 35,45,40,35 1005 185 10 -20.74 147.67 30 50 987 8 159,139,70,70 225 1008 69 69 9 239
2017 SP EA 14:00:00 TS -20.87 147.56 45 990 bom 0 0 P_____O_______ SH132017 -20.97 147.58 TS 53 983 0 35,45,40,35 1005 185 10 -20.78 147.54 30 45 990 8 159,139,70,70 225 1008 64 64 8 240
2017 SP EA 15:00:00 TS -20.94 147.44 45 990 bom 0 0 P_____O_______ SH132017 -21.06 147.47 TS 50 985 0 35,45,40,35 1005 185 10 -20.82 147.41 30 45 990 8 159,139,70,70 225 1008 64 64 8 236
2017 SP EA 16:00:00 TS -21.02 147.33 40 994 bom 0 0 P_____O_______ SH132017 -21.14 147.37 TS 46 988 0 35,45,40,35 1005 185 10 -20.90 147.28 30 40 994 8 159,139,70,70 225 1008 55 55 7 231
2017 SP EA 17:00:00 TS -21.09 147.24 30 995 bom 0 0 P_____V_______ SH132017 -21.23 147.28 TS 43 990 0 35,45,40,35 1005 185 10 -20.95 147.20 30 30 995 9 99,99,50,50 225 1008 45 45 7 196
2017 SP EA 18:00:00 TS -21.25 147.25 35 989 bom 0 0 O_____O_______ jtwc_sh SH132017 -21.30 147.20 TS 40 993 0 35,45,40,35 1005 185 10 -21.20 147.30 30 35 989 10 39,59,30,30 170 1006 7 7 49 49 6 200
2017 SP EA 19:00:00 TS -21.28 147.16 995 bom 0 0 P_____I_______ SH132017 -21.35 147.12 TS 39 993 0 1005 185 10 -21.20 147.20 30 34 995 6 237
2017 SP EA 20:00:00 TS -21.35 147.08 995 bom 0 0 P_____I_______ SH132017 -21.40 147.06 TS 38 994 0 1005 185 10 -21.30 147.10 30 33 995 6 225
2017 SP EA 21:00:00 TS -21.41 147.01 0 0 P_____P_______ SH132017 -21.44 147.00 TS 37 994 0 1005 185 10 -21.39 147.02 30 32 994 5 214
2017 SP EA 2017-03-29 00:00:00 TS -21.60 146.90 30 994 bom 0 0 O_____O_______ jtwc_sh SH132017 -21.60 146.90 TS 35 996 0 1005 185 10 -21.60 146.90 20 30 994 7 7 45 45 5 200
2017 SP EA 03:00:00 TS -21.84 146.85 0 0 P_____P_______ SH132017 -21.87 146.88 TS 32 998 -1 1005 185 10 -21.82 146.84 20 27 994 5 178
2017 SP EA 06:00:00 TS -22.12 146.90 25 995 bom 0 0 O_____O_______ jtwc_sh SH132017 -22.20 146.90 TD 30 1000 -1 1005 185 10 -22.10 146.90 20 25 995 7 7 45 45 7 159
2017 SP EA 09:00:00 NR -22.46 147.11 0 0 ______P_______ SH132017 TD -1 -22.46 147.11 20 22 997 9 149
2017 SP EA 12:00:00 NR -22.90 147.40 20 999 bom 0 0 ______O_______ -1 -22.90 147.40 20 20 999 7 7 45 45 11 152
2017 SP EA 15:00:00 NR -23.46 147.68 0 0 ______P_______ -1 -23.46 147.68 20 20 999 12 153
2017 SP EA 18:00:00 NR -24.00 148.00 20 999 bom 0 0 ______O_______ -1 -24.00 148.00 20 20 999 7 7 45 45 10 151
2017 SP EA 21:00:00 NR -24.32 148.20 0 0 ______P_______ -1 -24.32 148.20 20 20 1000 10 134
2017 SP EA 2017-03-30 00:00:00 NR -24.70 148.80 20 1002 bom 0 0 ______O_______ -1 -24.70 148.80 20 20 1002 7 7 45 45 20 120
2017 SP EA 03:00:00 NR -25.30 150.10 1000 bom 0 0 ______I_______ -1 -25.30 150.10 20 22 1000 23 119
2017 SP EA 04:00:00 NR -25.45 150.30 1000 bom 0 0 ______I_______ -1 -25.45 150.30 20 23 1000 36 102
2017 SP EA 05:00:00 NR -25.55 151.40 999 bom 0 0 ______I_______ -1 -25.55 151.40 20 24 999 66 102
2017 SP EA 06:00:00 NR -25.90 152.70 25 999 bom 0 0 ______O_______ -1 -25.90 152.70 50 25 999 6 7 45 45 46 119
2017 SP EA 07:00:00 NR -26.30 152.90 998 bom 0 0 ______I_______ -1 -26.30 152.90 50 26 998 28 166
2017 SP EA 08:00:00 NR -26.80 152.95 997 bom 0 0 ______I_______ -1 -26.80 152.95 50 28 997 27 0
2017 SP EA 09:00:00 NR -27.20 152.90 997 bom 0 0 ______I_______ -1 -27.20 152.90 50 30 997 21 183
2017 SP EA 10:00:00 NR -27.50 152.90 996 bom 0 0 ______I_______ -1 -27.50 152.90 50 31 996 14 169
2017 SP EA 11:00:00 NR -27.66 153.00 996 bom 0 0 ______I_______ -1 -27.66 153.00 50 33 996 10 150
2017 SP EA 12:00:00 NR -27.80 153.10 35 994 bom 0 0 ______O_______ -1 -27.80 153.10 51 35 994 19,19,19, 6 7 49 49 11 132
2017 SP EA 13:00:00 NR -27.90 153.30 996 bom 0 0 ______I_______ -1 -27.90 153.30 51 35 996 19,19,25, 9 116
2017 SP EA 14:00:00 NR -27.93 153.40 996 bom 9 9 ______I_______ -1 -27.93 153.40 51 35 996 19,19,32, 9 124
2017 SP EA 15:00:00 NR -28.07 153.58 11 11 ______P_______ -1 -28.07 153.58 51 35 996 19,19,39, 13 124
2017 SP EA 16:00:00 NR -28.17 153.80 996 bom 19 19 ______I_______ -1 -28.17 153.80 51 35 996 19,19,45, 11 73
2017 SP EA 18:00:00 NR -27.90 154.20 35 995 bom 67 67 ______O_______ -1 -27.90 154.20 51 35 995 19,19,59,59 7 7 49 49 15 74
2017 SP EA 21:00:00 NR -27.84 155.13 153 153 ______P_______ -1 -27.84 155.13 51 32 996 , ,84,84 17 93
2017 SP EA 2017-03-31 00:00:00 NR -28.00 156.10 30 998 bom 245 245 ______O_______ -1 -28.00 156.10 51 30 998 , ,110,110 3 7 49 49 14 100
2017 SP EA 03:00:00 NR -28.08 156.67 303 303 ______P_______ -1 -28.08 156.67 51 30 998 , ,110,110 9 103
2017 SP EA 06:00:00 NR -28.20 157.10 30 998 bom 342 342 ______O_______ -1 -28.20 157.10 51 30 998 , ,110,110 3 7 47 47 9 107
2017 SP EA 09:00:00 NR -28.34 157.63 391 391 ______P_______ -1 -28.34 157.63 51 30 998 , ,114,114 9 109
2017 SP EA 12:00:00 NR -28.50 158.10 30 999 bom 439 439 ______O_______ -1 -28.50 158.10 51 30 999 , ,119,119 3 7 45 45 8 116
2017 SP EA 15:00:00 NR -28.67 158.41 467 467 ______P_______ -1 -28.67 158.41 51 27 999 6 126
2017 SP EA 18:00:00 NR -28.85 158.65 25 1000 bom 496 486 ______O_______ -1 -28.85 158.65 50 25 1000 3 7 45 45 6 129
2017 SP EA 21:00:00 NR -29.03 158.91 515 515 ______P_______ -1 -29.03 158.91 50 22 1001 6 126
2017 SP EA 2017-04-01 00:00:00 NR -29.20 159.20 20 1002 bom 544 ______O_______ -1 -29.20 159.20 50 20 1002 3 7 45 45 6 125